createdAt,value
2023-04-03T00:00:19.646Z,4.97
2023-04-03T00:03:22.003Z,2.40
2023-04-03T00:06:24.879Z,5.03
2023-04-03T00:09:27.130Z,3.80
2023-04-03T00:12:29.279Z,4.68
2023-04-03T00:15:31.602Z,4.95
2023-04-03T00:18:33.801Z,4.30
2023-04-03T00:21:36.757Z,3.67
2023-04-03T00:24:39.084Z,4.03
2023-04-03T00:27:41.545Z,6.20
2023-04-03T00:30:43.931Z,6.20
2023-04-03T00:33:46.166Z,5.50
2023-04-03T00:36:48.466Z,4.25
2023-04-03T00:39:51.271Z,4.60
2023-04-03T00:42:57.069Z,4.95
2023-04-03T00:46:00.495Z,2.40
2023-04-03T00:49:02.695Z,5.13
2023-04-03T00:52:07.605Z,3.28
2023-04-03T00:55:11.016Z,6.47
2023-04-03T00:58:13.592Z,6.43
2023-04-03T01:01:18.990Z,5.05
2023-04-03T01:04:29.240Z,6.22
2023-04-03T01:07:32.423Z,7.57
2023-04-03T01:10:34.759Z,6.03
2023-04-03T01:13:37.107Z,6.95
2023-04-03T01:16:41.801Z,5.28
2023-04-03T01:19:45.225Z,5.72
2023-04-03T01:22:47.420Z,5.00
2023-04-03T01:25:54.220Z,5.80
2023-04-03T01:28:56.613Z,7.47
2023-04-03T01:32:00.140Z,4.30
2023-04-03T01:35:02.759Z,6.00
2023-04-03T01:38:04.947Z,6.60
2023-04-03T01:41:07.514Z,5.77
2023-04-03T01:44:09.869Z,5.20
2023-04-03T01:47:12.096Z,6.57
2023-04-03T01:50:16.294Z,4.97
2023-04-03T01:53:18.517Z,7.05
2023-04-03T01:56:21.437Z,6.93
2023-04-03T01:59:24.267Z,4.35
2023-04-03T02:02:27.315Z,6.65
2023-04-03T02:05:29.762Z,4.88
2023-04-03T02:08:33.249Z,8.80
2023-04-03T02:11:35.819Z,6.77
2023-04-03T02:14:38.240Z,5.20
2023-04-03T02:17:40.575Z,5.13
2023-04-03T02:20:43.027Z,7.20
2023-04-03T02:23:45.688Z,5.75
2023-04-03T02:26:48.004Z,4.03
2023-04-03T02:29:50.601Z,6.45
2023-04-03T02:32:53.689Z,6.20
2023-04-03T02:35:56.674Z,4.63
2023-04-03T02:38:59.180Z,4.47
2023-04-03T02:42:01.488Z,3.27
2023-04-03T02:45:04.576Z,3.13
2023-04-03T02:48:06.920Z,5.60
2023-04-03T02:51:09.151Z,4.53
2023-04-03T02:54:11.345Z,5.20
2023-04-03T02:57:16.929Z,4.97
2023-04-03T03:00:19.467Z,3.42
2023-04-03T03:03:21.700Z,4.70
2023-04-03T03:06:24.043Z,3.65
2023-04-03T03:09:27.514Z,4.65
2023-04-03T03:12:31.019Z,3.43
2023-04-03T03:15:34.193Z,3.08
2023-04-03T03:18:38.138Z,3.22
2023-04-03T03:21:40.532Z,5.00
2023-04-03T03:24:42.958Z,6.30
2023-04-03T03:27:45.402Z,3.07
2023-04-03T03:30:47.769Z,3.65
2023-04-03T03:33:50.365Z,3.95
2023-04-03T03:36:52.531Z,4.35
2023-04-03T03:39:54.799Z,2.72
2023-04-03T03:42:57.522Z,4.37
2023-04-03T03:45:59.877Z,3.42
2023-04-03T03:49:03.515Z,2.90
2023-04-03T03:52:05.874Z,3.55
2023-04-03T03:55:08.400Z,4.07
2023-04-03T03:58:12.560Z,5.40
2023-04-03T04:01:14.915Z,2.47
2023-04-03T04:04:22.068Z,4.93
2023-04-03T04:07:25.490Z,3.33
2023-04-03T04:10:27.791Z,3.80
2023-04-03T04:13:31.364Z,2.70
2023-04-03T04:16:34.039Z,2.58
2023-04-03T04:19:41.949Z,2.47
2023-04-03T04:22:44.693Z,3.50
2023-04-03T04:25:48.649Z,4.47
2023-04-03T04:28:51.250Z,3.80
2023-04-03T04:31:55.062Z,2.50
2023-04-03T04:34:58.720Z,2.95
2023-04-03T04:38:01.841Z,3.25
2023-04-03T04:41:04.130Z,3.00
2023-04-03T04:44:06.824Z,2.93
2023-04-03T04:47:10.001Z,4.20
2023-04-03T04:50:12.604Z,3.30
2023-04-03T04:53:15.708Z,3.13
2023-04-03T04:56:18.662Z,1.73
2023-04-03T04:59:22.105Z,3.30
2023-04-03T05:02:25.946Z,3.15
2023-04-03T05:05:29.385Z,2.75
2023-04-03T05:08:32.274Z,2.67
2023-04-03T05:11:36.511Z,4.65
2023-04-03T05:14:40.794Z,4.23
2023-04-03T05:17:45.005Z,3.03
2023-04-03T05:20:51.652Z,2.88
2023-04-03T05:23:54.999Z,4.63
2023-04-03T05:26:57.343Z,3.88
2023-04-03T05:30:00.850Z,3.80
2023-04-03T05:33:03.808Z,5.35
2023-04-03T05:36:17.892Z,4.68
2023-04-03T05:39:25.650Z,4.28
2023-04-03T05:42:28.446Z,6.90
2023-04-03T05:45:33.208Z,5.20
2023-04-03T05:48:38.041Z,8.20
2023-04-03T05:51:41.431Z,4.15
2023-04-03T05:55:07.108Z,5.65
2023-04-03T05:58:11.836Z,5.72
2023-04-03T06:01:37.608Z,6.57
2023-04-03T06:04:42.842Z,4.38
2023-04-03T06:07:46.166Z,4.53
2023-04-03T06:10:51.497Z,2.80
2023-04-03T06:13:54.822Z,4.93
2023-04-03T06:16:57.302Z,3.57
2023-04-03T06:20:00.572Z,3.97
2023-04-03T06:23:03.192Z,3.05
2023-04-03T06:26:06.632Z,4.45
2023-04-03T06:29:08.920Z,2.60
2023-04-03T06:32:11.528Z,3.37
2023-04-03T06:35:13.765Z,2.97
2023-04-03T06:38:17.385Z,2.70
2023-04-03T06:41:19.625Z,2.25
2023-04-03T06:44:24.781Z,2.75
2023-04-03T06:47:27.167Z,2.17
2023-04-03T06:50:33.179Z,1.98
2023-04-03T06:53:38.488Z,2.42
2023-04-03T06:56:41.130Z,4.10
2023-04-03T06:59:43.493Z,4.35
2023-04-03T07:02:46.619Z,2.90
2023-04-03T07:05:49.241Z,4.97
2023-04-03T07:08:52.282Z,2.50
2023-04-03T07:11:54.617Z,2.83
2023-04-03T07:14:56.939Z,3.55
2023-04-03T07:17:59.267Z,2.50
2023-04-03T07:21:01.646Z,3.17
2023-04-03T07:24:04.013Z,2.90
2023-04-03T07:27:06.806Z,3.83
2023-04-03T07:30:10.316Z,3.45
2023-04-03T07:33:12.886Z,3.37
2023-04-03T07:36:19.707Z,2.55
2023-04-03T07:39:22.242Z,2.38
2023-04-03T07:42:24.684Z,2.08
2023-04-03T07:45:28.256Z,2.55
2023-04-03T07:48:31.811Z,2.67
2023-04-03T07:51:34.117Z,2.10
2023-04-03T07:54:44.284Z,2.97
2023-04-03T07:57:48.615Z,3.10
2023-04-03T08:00:51.548Z,2.78
2023-04-03T08:03:56.810Z,2.67
2023-04-03T08:06:59.335Z,1.48
2023-04-03T08:10:01.612Z,3.10
2023-04-03T08:13:04.343Z,2.50
2023-04-03T08:16:13.969Z,2.03
2023-04-03T08:19:25.593Z,2.67
2023-04-03T08:22:28.662Z,3.47
2023-04-03T08:25:30.966Z,2.22
2023-04-03T08:28:33.265Z,2.50
2023-04-03T08:31:35.693Z,2.47
2023-04-03T08:34:40.375Z,3.03
2023-04-03T08:37:42.840Z,2.60
2023-04-03T08:40:45.094Z,5.40
2023-04-03T08:44:03.698Z,2.35
2023-04-03T08:47:06.017Z,2.17
2023-04-03T08:50:15.586Z,2.13
2023-04-03T08:53:27.862Z,2.03
2023-04-03T08:56:37.265Z,2.25
2023-04-03T08:59:41.843Z,2.40
2023-04-03T09:02:51.636Z,3.55
2023-04-03T09:06:00.947Z,1.93
2023-04-03T09:09:13.099Z,1.48
2023-04-03T09:12:22.335Z,2.20
2023-04-03T09:15:37.749Z,2.70
2023-04-03T09:18:43.329Z,3.10
2023-04-03T09:21:45.522Z,2.97
2023-04-03T09:24:58.500Z,2.35
2023-04-03T09:28:04.009Z,2.65
2023-04-03T09:31:16.206Z,1.92
2023-04-03T09:34:22.490Z,3.50
2023-04-03T09:37:54.735Z,2.87
2023-04-03T09:41:03.793Z,2.40
2023-04-03T09:44:21.004Z,2.83
2023-04-03T09:47:27.580Z,1.88
2023-04-03T09:50:30.980Z,2.55
2023-04-03T09:53:40.974Z,1.90
2023-04-03T09:56:53.125Z,4.35
2023-04-03T10:00:04.920Z,2.90
2023-04-03T10:03:25.579Z,2.55
2023-04-03T10:06:31.852Z,5.00
2023-04-03T10:09:34.340Z,2.73
2023-04-03T10:12:36.509Z,3.38
2023-04-03T10:15:57.178Z,2.47
2023-04-03T10:19:02.522Z,2.35
2023-04-03T10:22:09.614Z,3.17
2023-04-03T10:25:33.858Z,2.67
2023-04-03T10:28:42.695Z,1.70
2023-04-03T10:31:54.278Z,1.60
2023-04-03T10:35:09.153Z,2.53
2023-04-03T10:38:14.388Z,1.92
2023-04-03T10:41:35.527Z,3.67
2023-04-03T10:44:43.725Z,1.77
2023-04-03T10:48:05.003Z,3.22
2023-04-03T10:51:07.588Z,1.67
2023-04-03T10:54:19.339Z,3.00
2023-04-03T10:57:24.611Z,2.43
2023-04-03T11:00:38.394Z,6.30
2023-04-03T11:03:52.061Z,3.78
2023-04-03T11:07:00.202Z,2.35
2023-04-03T11:10:22.423Z,3.25
2023-04-03T11:13:32.033Z,3.07
2023-04-03T11:16:43.472Z,3.25
2023-04-03T11:19:53.603Z,2.80
2023-04-03T11:23:02.458Z,2.42
2023-04-03T11:26:15.708Z,1.23
2023-04-03T11:29:34.477Z,1.77
2023-04-03T11:32:49.859Z,1.25
2023-04-03T11:35:57.486Z,1.10
2023-04-03T11:39:01.850Z,1.95
2023-04-03T11:42:36.902Z,2.67
2023-04-03T11:45:56.107Z,1.50
2023-04-03T11:48:58.378Z,1.90
2023-04-03T11:52:00.979Z,2.05
2023-04-03T11:55:04.290Z,2.00
2023-04-03T11:58:14.471Z,2.22
2023-04-03T12:01:36.773Z,2.47
2023-04-03T12:05:01.762Z,1.45
2023-04-03T12:08:22.922Z,1.85
2023-04-03T12:11:29.948Z,2.28
2023-04-03T12:14:33.736Z,2.53
2023-04-03T12:17:36.478Z,2.70
2023-04-03T12:21:08.249Z,2.97
2023-04-03T12:24:10.897Z,2.65
2023-04-03T12:27:34.030Z,2.33
2023-04-03T12:30:36.486Z,1.63
2023-04-03T12:33:59.156Z,2.17
2023-04-03T12:37:20.310Z,4.13
2023-04-03T12:40:25.665Z,1.42
2023-04-03T12:43:34.733Z,2.17
2023-04-03T12:46:44.621Z,0.90
2023-04-03T12:49:47.814Z,2.30
2023-04-03T12:52:57.570Z,2.17
2023-04-03T12:56:19.511Z,2.25
2023-04-03T12:59:26.096Z,1.73
2023-04-03T13:02:32.357Z,1.42
2023-04-03T13:05:37.249Z,1.90
2023-04-03T13:08:49.086Z,2.10
2023-04-03T13:11:53.144Z,2.10
2023-04-03T13:14:57.824Z,5.13
2023-04-03T13:18:00.181Z,1.20
2023-04-03T13:21:22.838Z,2.00
2023-04-03T13:24:25.271Z,1.73
2023-04-03T13:27:27.790Z,1.40
2023-04-03T13:30:31.785Z,1.42
2023-04-03T13:33:38.779Z,1.77
2023-04-03T13:36:55.821Z,2.00
2023-04-03T13:40:07.414Z,1.38
2023-04-03T13:43:21.400Z,1.67
2023-04-03T13:46:26.112Z,2.08
2023-04-03T13:49:34.393Z,3.17
2023-04-03T13:52:42.061Z,0.97
2023-04-03T13:56:13.618Z,1.90
2023-04-03T13:59:17.416Z,2.47
2023-04-03T14:02:21.515Z,2.20
2023-04-03T14:05:26.351Z,1.83
2023-04-03T14:08:41.863Z,1.50
2023-04-03T14:11:46.209Z,1.92
2023-04-03T14:14:48.389Z,2.13
2023-04-03T14:17:52.694Z,1.92
2023-04-03T14:20:54.919Z,1.38
2023-04-03T14:23:57.792Z,1.27
2023-04-03T14:27:01.423Z,0.60
2023-04-03T14:30:05.091Z,1.25
2023-04-03T14:33:08.016Z,1.75
2023-04-03T14:36:14.814Z,1.13
2023-04-03T14:39:19.312Z,1.23
2023-04-03T14:42:23.670Z,1.85
2023-04-03T14:45:26.037Z,1.70
2023-04-03T14:48:29.416Z,0.95
2023-04-03T14:51:32.177Z,1.00
2023-04-03T14:54:34.359Z,2.97
2023-04-03T14:57:37.871Z,1.42
2023-04-03T15:00:40.676Z,1.98
2023-04-03T15:03:43.222Z,1.27
2023-04-03T15:06:46.452Z,1.05
2023-04-03T15:09:48.803Z,1.33
2023-04-03T15:12:51.072Z,2.05
2023-04-03T15:15:53.821Z,2.58
2023-04-03T15:18:56.062Z,1.95
2023-04-03T15:21:58.337Z,1.10
2023-04-03T15:25:00.710Z,0.93
2023-04-03T15:28:02.972Z,1.08
2023-04-03T15:31:05.865Z,2.90
2023-04-03T15:34:08.105Z,0.93
2023-04-03T15:37:10.511Z,1.02
2023-04-03T15:40:13.089Z,1.07
2023-04-03T15:43:15.973Z,1.40
2023-04-03T15:46:18.223Z,2.20
2023-04-03T15:49:21.887Z,1.10
2023-04-03T15:52:24.202Z,3.25
2023-04-03T15:55:27.053Z,2.57
2023-04-03T15:58:29.307Z,2.10
2023-04-03T16:01:32.216Z,2.60
2023-04-03T16:04:34.933Z,1.65
2023-04-03T16:07:38.315Z,1.48
2023-04-03T16:10:41.477Z,2.10
2023-04-03T16:13:43.972Z,1.20
2023-04-03T16:16:46.237Z,2.50
2023-04-03T16:19:48.560Z,2.72
2023-04-03T16:22:50.916Z,1.88
2023-04-03T16:25:53.205Z,1.97
2023-04-03T16:28:55.611Z,2.88
2023-04-03T16:31:58.354Z,3.05
2023-04-03T16:38:07.954Z,1.10
2023-04-03T16:41:10.277Z,3.67
2023-04-03T16:44:12.773Z,2.28
2023-04-03T16:47:16.193Z,1.70
2023-04-03T16:50:18.513Z,2.40
2023-04-03T16:53:21.567Z,1.35
2023-04-03T16:56:23.810Z,2.07
2023-04-03T16:59:26.326Z,2.10
2023-04-03T17:02:28.895Z,1.90
2023-04-03T17:05:31.222Z,1.90
2023-04-03T17:08:33.482Z,3.00
2023-04-03T17:14:43.499Z,3.20
2023-04-03T17:17:45.919Z,1.50
2023-04-03T17:20:48.205Z,2.53
2023-04-03T17:23:53.669Z,1.88
2023-04-03T17:26:55.902Z,0.67
2023-04-03T17:29:58.117Z,1.67
2023-04-03T17:33:00.547Z,2.60
2023-04-03T17:36:04.470Z,1.98
2023-04-03T17:39:07.030Z,3.08
2023-04-03T17:42:09.196Z,1.93
2023-04-03T17:45:11.625Z,2.22
2023-04-03T17:48:13.944Z,2.47
2023-04-03T17:51:18.250Z,2.45
2023-04-03T17:54:20.612Z,1.55
2023-04-03T17:57:23.122Z,1.27
2023-04-03T18:00:25.555Z,1.73
2023-04-03T18:03:27.967Z,2.15
2023-04-03T18:06:36.936Z,0.80
2023-04-03T18:09:41.212Z,1.60
2023-04-03T18:12:43.724Z,4.33
2023-04-03T18:15:46.286Z,1.65
2023-04-03T18:18:50.820Z,3.22
2023-04-03T18:22:02.185Z,3.33
2023-04-03T18:25:04.602Z,1.10
2023-04-03T18:28:07.244Z,2.47
2023-04-03T18:31:13.335Z,2.60
2023-04-03T18:34:15.895Z,4.32
2023-04-03T18:37:20.988Z,3.15
2023-04-03T18:40:23.494Z,1.55
2023-04-03T18:43:26.822Z,4.63
2023-04-03T18:46:29.320Z,3.50
2023-04-03T18:49:32.874Z,3.05
2023-04-03T18:52:35.320Z,2.83
2023-04-03T18:55:37.689Z,1.70
2023-04-03T18:58:40.074Z,3.20
2023-04-03T19:01:42.420Z,2.00
2023-04-03T19:04:45.570Z,2.50
2023-04-03T19:07:49.364Z,3.35
2023-04-03T19:10:51.807Z,3.05
2023-04-03T19:14:10.537Z,2.03
2023-04-03T19:17:16.529Z,1.10
2023-04-03T19:20:19.157Z,3.47
2023-04-03T19:23:21.545Z,3.10
2023-04-03T19:26:23.742Z,5.07
2023-04-03T19:29:26.191Z,2.93
2023-04-03T19:32:28.818Z,1.90
2023-04-03T19:35:31.303Z,1.75
2023-04-03T19:38:35.053Z,2.58
2023-04-03T19:41:39.989Z,2.55
2023-04-03T19:44:43.838Z,2.20
2023-04-03T19:47:47.256Z,1.52
2023-04-03T19:50:49.811Z,4.43
2023-04-03T19:53:55.352Z,0.52
2023-04-03T19:56:58.219Z,0.70
2023-04-03T20:00:00.537Z,2.03
2023-04-03T20:03:02.962Z,2.08
2023-04-03T20:06:05.520Z,4.43
2023-04-03T20:09:07.921Z,2.13
2023-04-03T20:12:10.737Z,1.23
2023-04-03T20:15:13.492Z,3.70
2023-04-03T20:18:19.783Z,1.90
2023-04-03T20:21:26.621Z,0.85
2023-04-03T20:24:29.492Z,0.52
2023-04-03T20:27:32.323Z,1.02
2023-04-03T20:30:34.824Z,1.33
2023-04-03T20:33:37.714Z,2.17
2023-04-03T20:36:39.907Z,1.50
2023-04-03T20:39:42.203Z,1.95
2023-04-03T20:42:44.491Z,0.83
2023-04-03T20:45:48.069Z,0.67
2023-04-03T20:48:50.228Z,0.90
2023-04-03T20:51:52.990Z,2.50
2023-04-03T20:54:55.299Z,0.63
2023-04-03T20:58:01.267Z,0.77
2023-04-03T21:01:03.568Z,2.00
2023-04-03T21:04:13.333Z,2.30
2023-04-03T21:07:34.291Z,0.77
2023-04-03T21:10:55.239Z,1.23
2023-04-03T21:14:17.744Z,2.15
2023-04-03T21:17:19.986Z,3.50
2023-04-03T21:20:22.267Z,0.93
2023-04-03T21:23:25.839Z,1.33
2023-04-03T21:26:28.274Z,1.33
2023-04-03T21:29:30.473Z,0.70
2023-04-03T21:32:32.744Z,4.40
2023-04-03T21:35:34.958Z,0.70
2023-04-03T21:38:37.200Z,1.90
2023-04-03T21:41:39.505Z,2.78
2023-04-03T21:44:41.735Z,0.63
2023-04-03T21:47:44.892Z,1.17
2023-04-03T21:50:50.091Z,3.15
2023-04-03T21:53:53.435Z,1.20
2023-04-03T21:56:55.673Z,1.10
2023-04-03T21:59:58.003Z,1.48
2023-04-03T22:03:10.123Z,1.27
2023-04-03T22:06:13.959Z,0.82
2023-04-03T22:09:16.148Z,0.73
2023-04-03T22:12:18.462Z,1.52
2023-04-03T22:15:22.442Z,1.53
2023-04-03T22:18:25.051Z,1.17
2023-04-03T22:21:27.338Z,2.25
2023-04-03T22:24:30.096Z,1.08
2023-04-03T22:27:32.421Z,1.80
2023-04-03T22:30:34.606Z,1.63
2023-04-03T22:33:37.617Z,3.47
2023-04-03T22:36:43.145Z,0.98
2023-04-03T22:39:45.693Z,2.08
2023-04-03T22:42:48.394Z,0.85
2023-04-03T22:45:50.803Z,2.03
2023-04-03T22:48:52.997Z,1.70
2023-04-03T22:51:55.481Z,1.00
2023-04-03T22:55:01.376Z,1.88
2023-04-03T22:58:08.604Z,0.60
2023-04-03T23:01:11.921Z,1.20
2023-04-03T23:04:14.271Z,0.60
2023-04-03T23:07:17.420Z,1.35
2023-04-03T23:10:19.874Z,1.10
2023-04-03T23:13:22.431Z,1.50
2023-04-03T23:16:24.973Z,0.30
2023-04-03T23:19:27.257Z,2.77
2023-04-03T23:22:29.530Z,3.38
2023-04-03T23:25:31.788Z,0.90
2023-04-03T23:28:33.945Z,1.08
2023-04-03T23:31:36.433Z,1.83
2023-04-03T23:34:38.618Z,2.37
2023-04-03T23:37:40.775Z,1.15
2023-04-03T23:40:43.048Z,1.13
2023-04-03T23:43:46.505Z,1.73
2023-04-03T23:46:48.746Z,2.60
2023-04-03T23:49:51.038Z,1.50
2023-04-03T23:52:53.235Z,1.02
2023-04-03T23:55:55.492Z,4.00
2023-04-03T23:58:58.545Z,1.45
